Elabuga, Russia
Current Conditions -  °F | °C
As of 5:00 PM on Friday 31 Oct 2014 (Local Time) from UWKE Reporting Station
Overcast Overcast  
Wind Chill: 33°   Ceiling: 10000
Heat Index: 41°   Visibility: 4mi
Dew Point: 37°   Wind: 16mph
Humidity: 87%   Direction: 220°SW
Pressure: 29.97"   Gusts: 22mph
Location:  55.77°N, 52.07°E
Report Text: UWKE 311400Z 22007G10MPS 7000 OVC100 05/03 Q1015 NOSIG RMK QFE744/0992 21210370
Loading
Personal Weather Stations






























Interactive Weather Map
Tropical Storm Tracking
New forecast layout! Learn more

10-Day Weather Forecast

Advertisements
Track Severe Weather on mobile